sensor_id;sensor_type;location;lat;lon;timestamp;P1;durP1;ratioP1;P2;durP2;ratioP2
3503;SDS011;1766;53.490;10.174;2023-01-26T00:00:03;63.53;;;24.93;;
3503;SDS011;1766;53.490;10.174;2023-01-26T00:02:07;77.70;;;26.67;;
3503;SDS011;1766;53.490;10.174;2023-01-26T00:04:09;59.90;;;24.77;;
3503;SDS011;1766;53.490;10.174;2023-01-26T00:06:13;66.37;;;25.10;;
3503;SDS011;1766;53.490;10.174;2023-01-26T00:08:17;72.70;;;26.03;;
3503;SDS011;1766;53.490;10.174;2023-01-26T00:10:19;59.40;;;23.90;;
3503;SDS011;1766;53.490;10.174;2023-01-26T00:12:21;61.83;;;22.97;;
3503;SDS011;1766;53.490;10.174;2023-01-26T00:14:23;70.80;;;25.13;;
3503;SDS011;1766;53.490;10.174;2023-01-26T00:16:25;65.40;;;24.03;;
3503;SDS011;1766;53.490;10.174;2023-01-26T00:18:28;62.10;;;24.93;;
3503;SDS011;1766;53.490;10.174;2023-01-26T00:20:30;59.97;;;21.67;;
3503;SDS011;1766;53.490;10.174;2023-01-26T00:22:33;65.67;;;23.87;;
3503;SDS011;1766;53.490;10.174;2023-01-26T00:24:35;58.97;;;23.37;;
3503;SDS011;1766;53.490;10.174;2023-01-26T00:26:37;60.63;;;23.43;;
3503;SDS011;1766;53.490;10.174;2023-01-26T00:28:39;62.40;;;23.17;;
3503;SDS011;1766;53.490;10.174;2023-01-26T00:30:41;70.67;;;24.57;;
3503;SDS011;1766;53.490;10.174;2023-01-26T00:32:47;67.70;;;24.70;;
3503;SDS011;1766;53.490;10.174;2023-01-26T00:34:49;65.37;;;23.03;;
3503;SDS011;1766;53.490;10.174;2023-01-26T00:36:51;59.10;;;23.47;;
3503;SDS011;1766;53.490;10.174;2023-01-26T00:38:55;63.13;;;23.33;;
3503;SDS011;1766;53.490;10.174;2023-01-26T00:40:57;62.03;;;22.37;;
3503;SDS011;1766;53.490;10.174;2023-01-26T00:42:58;63.77;;;23.10;;
3503;SDS011;1766;53.490;10.174;2023-01-26T00:45:00;59.73;;;22.37;;
3503;SDS011;1766;53.490;10.174;2023-01-26T00:47:02;55.53;;;21.63;;
3503;SDS011;1766;53.490;10.174;2023-01-26T00:49:04;66.83;;;23.83;;
3503;SDS011;1766;53.490;10.174;2023-01-26T00:51:06;61.97;;;23.03;;
3503;SDS011;1766;53.490;10.174;2023-01-26T00:53:08;58.43;;;21.30;;
3503;SDS011;1766;53.490;10.174;2023-01-26T00:55:12;56.80;;;20.93;;
3503;SDS011;1766;53.490;10.174;2023-01-26T00:57:13;62.10;;;21.20;;
3503;SDS011;1766;53.490;10.174;2023-01-26T00:59:15;59.33;;;21.93;;
3503;SDS011;1766;53.490;10.174;2023-01-26T01:01:17;62.20;;;22.43;;
3503;SDS011;1766;53.490;10.174;2023-01-26T01:03:19;56.83;;;21.50;;
3503;SDS011;1766;53.490;10.174;2023-01-26T01:05:21;60.83;;;22.57;;
3503;SDS011;1766;53.490;10.174;2023-01-26T01:07:23;65.80;;;23.67;;
3503;SDS011;1766;53.490;10.174;2023-01-26T01:09:27;62.63;;;24.43;;
3503;SDS011;1766;53.490;10.174;2023-01-26T01:11:30;71.60;;;24.63;;
3503;SDS011;1766;53.490;10.174;2023-01-26T01:13:32;66.93;;;23.73;;
3503;SDS011;1766;53.490;10.174;2023-01-26T01:15:34;67.73;;;23.87;;
3503;SDS011;1766;53.490;10.174;2023-01-26T01:17:38;66.73;;;22.53;;
3503;SDS011;1766;53.490;10.174;2023-01-26T01:19:40;64.77;;;24.13;;
3503;SDS011;1766;53.490;10.174;2023-01-26T01:21:42;64.63;;;25.07;;
3503;SDS011;1766;53.490;10.174;2023-01-26T01:23:45;67.23;;;23.63;;
3503;SDS011;1766;53.490;10.174;2023-01-26T01:25:55;63.60;;;23.20;;
3503;SDS011;1766;53.490;10.174;2023-01-26T01:27:58;60.07;;;22.77;;
3503;SDS011;1766;53.490;10.174;2023-01-26T01:30:00;63.27;;;24.67;;
3503;SDS011;1766;53.490;10.174;2023-01-26T01:32:06;63.10;;;24.10;;
3503;SDS011;1766;53.490;10.174;2023-01-26T01:34:08;64.57;;;24.57;;
3503;SDS011;1766;53.490;10.174;2023-01-26T01:36:11;66.27;;;23.73;;
3503;SDS011;1766;53.490;10.174;2023-01-26T01:38:15;65.47;;;23.23;;
3503;SDS011;1766;53.490;10.174;2023-01-26T01:40:17;64.37;;;23.33;;
3503;SDS011;1766;53.490;10.174;2023-01-26T01:42:19;67.73;;;24.37;;
3503;SDS011;1766;53.490;10.174;2023-01-26T01:44:24;68.30;;;25.00;;
3503;SDS011;1766;53.490;10.174;2023-01-26T01:46:27;61.90;;;22.93;;
3503;SDS011;1766;53.490;10.174;2023-01-26T01:48:35;63.67;;;23.90;;
3503;SDS011;1766;53.490;10.174;2023-01-26T01:50:51;63.03;;;23.93;;
3503;SDS011;1766;53.490;10.174;2023-01-26T01:52:55;64.43;;;22.93;;
3503;SDS011;1766;53.490;10.174;2023-01-26T01:54:58;65.40;;;24.83;;
3503;SDS011;1766;53.490;10.174;2023-01-26T01:57:06;61.63;;;24.77;;
3503;SDS011;1766;53.490;10.174;2023-01-26T01:59:16;60.80;;;24.40;;
3503;SDS011;1766;53.490;10.174;2023-01-26T02:01:21;61.03;;;23.30;;
3503;SDS011;1766;53.490;10.174;2023-01-26T02:03:24;68.10;;;23.73;;
3503;SDS011;1766;53.490;10.174;2023-01-26T02:05:28;64.70;;;24.57;;
3503;SDS011;1766;53.490;10.174;2023-01-26T02:07:37;69.97;;;25.27;;
3503;SDS011;1766;53.490;10.174;2023-01-26T02:09:39;66.40;;;25.73;;
3503;SDS011;1766;53.490;10.174;2023-01-26T02:11:57;64.67;;;24.00;;
3503;SDS011;1766;53.490;10.174;2023-01-26T02:13:59;68.67;;;24.60;;
3503;SDS011;1766;53.490;10.174;2023-01-26T02:16:05;73.27;;;24.67;;
3503;SDS011;1766;53.490;10.174;2023-01-26T02:18:08;69.83;;;25.43;;
3503;SDS011;1766;53.490;10.174;2023-01-26T02:20:13;73.77;;;26.23;;
3503;SDS011;1766;53.490;10.174;2023-01-26T02:22:24;63.30;;;24.00;;
3503;SDS011;1766;53.490;10.174;2023-01-26T02:24:34;67.93;;;22.33;;
3503;SDS011;1766;53.490;10.174;2023-01-26T02:26:40;65.60;;;25.57;;
3503;SDS011;1766;53.490;10.174;2023-01-26T02:28:43;63.63;;;24.00;;
3503;SDS011;1766;53.490;10.174;2023-01-26T02:30:46;64.23;;;24.87;;
3503;SDS011;1766;53.490;10.174;2023-01-26T02:32:49;69.73;;;24.83;;
3503;SDS011;1766;53.490;10.174;2023-01-26T02:34:54;64.43;;;24.03;;
3503;SDS011;1766;53.490;10.174;2023-01-26T02:36:57;68.10;;;23.37;;
3503;SDS011;1766;53.490;10.174;2023-01-26T02:39:05;73.70;;;24.67;;
3503;SDS011;1766;53.490;10.174;2023-01-26T02:41:22;62.33;;;22.77;;
3503;SDS011;1766;53.490;10.174;2023-01-26T02:43:39;67.00;;;23.07;;
3503;SDS011;1766;53.490;10.174;2023-01-26T02:45:41;68.80;;;26.13;;
3503;SDS011;1766;53.490;10.174;2023-01-26T02:47:44;64.97;;;24.30;;
3503;SDS011;1766;53.490;10.174;2023-01-26T02:49:45;68.63;;;23.73;;
3503;SDS011;1766;53.490;10.174;2023-01-26T02:51:46;65.77;;;25.17;;
3503;SDS011;1766;53.490;10.174;2023-01-26T02:53:48;67.23;;;23.80;;
3503;SDS011;1766;53.490;10.174;2023-01-26T02:55:50;72.07;;;25.43;;
3503;SDS011;1766;53.490;10.174;2023-01-26T02:57:51;72.60;;;24.27;;
3503;SDS011;1766;53.490;10.174;2023-01-26T02:59:56;67.67;;;25.80;;
3503;SDS011;1766;53.490;10.174;2023-01-26T03:01:58;66.57;;;23.97;;
3503;SDS011;1766;53.490;10.174;2023-01-26T03:04:00;66.43;;;23.60;;
3503;SDS011;1766;53.490;10.174;2023-01-26T03:06:02;67.33;;;23.43;;
3503;SDS011;1766;53.490;10.174;2023-01-26T03:08:04;54.53;;;20.67;;
3503;SDS011;1766;53.490;10.174;2023-01-26T03:10:06;63.60;;;23.47;;
3503;SDS011;1766;53.490;10.174;2023-01-26T03:12:09;64.87;;;24.03;;
3503;SDS011;1766;53.490;10.174;2023-01-26T03:14:12;54.77;;;20.90;;
3503;SDS011;1766;53.490;10.174;2023-01-26T03:16:17;62.40;;;23.90;;
3503;SDS011;1766;53.490;10.174;2023-01-26T03:18:19;62.07;;;21.90;;
3503;SDS011;1766;53.490;10.174;2023-01-26T03:20:36;63.80;;;22.20;;
3503;SDS011;1766;53.490;10.174;2023-01-26T03:22:53;62.87;;;22.47;;
3503;SDS011;1766;53.490;10.174;2023-01-26T03:25:09;64.83;;;23.23;;
3503;SDS011;1766;53.490;10.174;2023-01-26T03:27:24;62.17;;;22.30;;
3503;SDS011;1766;53.490;10.174;2023-01-26T03:29:27;61.33;;;22.20;;
3503;SDS011;1766;53.490;10.174;2023-01-26T03:31:30;61.33;;;23.00;;
3503;SDS011;1766;53.490;10.174;2023-01-26T03:33:32;60.07;;;22.10;;
3503;SDS011;1766;53.490;10.174;2023-01-26T03:35:34;63.90;;;22.47;;
3503;SDS011;1766;53.490;10.174;2023-01-26T03:37:35;59.60;;;22.43;;
3503;SDS011;1766;53.490;10.174;2023-01-26T03:39:42;61.63;;;23.50;;
3503;SDS011;1766;53.490;10.174;2023-01-26T03:41:58;73.47;;;25.43;;
3503;SDS011;1766;53.490;10.174;2023-01-26T03:44:14;66.33;;;23.53;;
3503;SDS011;1766;53.490;10.174;2023-01-26T03:46:31;65.63;;;23.03;;
3503;SDS011;1766;53.490;10.174;2023-01-26T03:48:47;65.23;;;22.57;;
3503;SDS011;1766;53.490;10.174;2023-01-26T03:51:03;60.73;;;22.70;;
3503;SDS011;1766;53.490;10.174;2023-01-26T03:53:20;66.13;;;23.93;;
3503;SDS011;1766;53.490;10.174;2023-01-26T03:55:37;67.80;;;23.57;;
3503;SDS011;1766;53.490;10.174;2023-01-26T03:57:53;69.97;;;23.10;;
3503;SDS011;1766;53.490;10.174;2023-01-26T03:59:55;74.27;;;25.00;;
3503;SDS011;1766;53.490;10.174;2023-01-26T04:01:58;37.70;;;14.87;;
3503;SDS011;1766;53.490;10.174;2023-01-26T04:04:14;73.50;;;23.60;;
3503;SDS011;1766;53.490;10.174;2023-01-26T04:06:30;62.53;;;22.90;;
3503;SDS011;1766;53.490;10.174;2023-01-26T04:08:45;72.13;;;24.10;;
3503;SDS011;1766;53.490;10.174;2023-01-26T04:10:47;71.80;;;21.67;;
3503;SDS011;1766;53.490;10.174;2023-01-26T04:12:51;73.30;;;23.87;;
3503;SDS011;1766;53.490;10.174;2023-01-26T04:15:07;66.67;;;23.30;;
3503;SDS011;1766;53.490;10.174;2023-01-26T04:17:24;75.97;;;24.23;;
3503;SDS011;1766;53.490;10.174;2023-01-26T04:19:40;69.77;;;24.73;;
3503;SDS011;1766;53.490;10.174;2023-01-26T04:21:57;73.93;;;25.00;;
3503;SDS011;1766;53.490;10.174;2023-01-26T04:24:00;70.07;;;24.37;;
3503;SDS011;1766;53.490;10.174;2023-01-26T04:26:13;77.90;;;25.60;;
3503;SDS011;1766;53.490;10.174;2023-01-26T04:28:15;66.43;;;24.67;;
3503;SDS011;1766;53.490;10.174;2023-01-26T04:30:17;65.50;;;23.57;;
3503;SDS011;1766;53.490;10.174;2023-01-26T04:32:19;65.93;;;23.47;;
3503;SDS011;1766;53.490;10.174;2023-01-26T04:34:22;72.43;;;25.80;;
3503;SDS011;1766;53.490;10.174;2023-01-26T04:36:24;67.53;;;23.37;;
3503;SDS011;1766;53.490;10.174;2023-01-26T04:38:26;67.80;;;24.10;;
3503;SDS011;1766;53.490;10.174;2023-01-26T04:40:28;72.53;;;22.90;;
3503;SDS011;1766;53.490;10.174;2023-01-26T04:42:30;72.50;;;23.20;;
3503;SDS011;1766;53.490;10.174;2023-01-26T04:44:32;71.70;;;25.90;;
3503;SDS011;1766;53.490;10.174;2023-01-26T04:46:33;65.43;;;22.67;;
3503;SDS011;1766;53.490;10.174;2023-01-26T04:48:35;67.67;;;24.50;;
3503;SDS011;1766;53.490;10.174;2023-01-26T04:50:39;66.43;;;23.57;;
3503;SDS011;1766;53.490;10.174;2023-01-26T04:52:40;70.47;;;25.27;;
3503;SDS011;1766;53.490;10.174;2023-01-26T04:54:43;69.13;;;24.27;;
3503;SDS011;1766;53.490;10.174;2023-01-26T04:56:45;64.30;;;23.20;;
3503;SDS011;1766;53.490;10.174;2023-01-26T04:58:46;65.57;;;23.93;;
3503;SDS011;1766;53.490;10.174;2023-01-26T05:00:49;69.83;;;23.40;;
3503;SDS011;1766;53.490;10.174;2023-01-26T05:02:51;65.47;;;22.97;;
3503;SDS011;1766;53.490;10.174;2023-01-26T05:04:53;69.77;;;24.43;;
3503;SDS011;1766;53.490;10.174;2023-01-26T05:06:56;63.70;;;23.03;;
3503;SDS011;1766;53.490;10.174;2023-01-26T05:08:58;65.63;;;24.03;;
3503;SDS011;1766;53.490;10.174;2023-01-26T05:11:00;66.10;;;24.70;;
3503;SDS011;1766;53.490;10.174;2023-01-26T05:13:02;70.63;;;24.03;;
3503;SDS011;1766;53.490;10.174;2023-01-26T05:15:03;65.20;;;24.27;;
3503;SDS011;1766;53.490;10.174;2023-01-26T05:17:06;62.13;;;22.30;;
3503;SDS011;1766;53.490;10.174;2023-01-26T05:19:08;60.37;;;21.57;;
3503;SDS011;1766;53.490;10.174;2023-01-26T05:21:10;60.83;;;21.50;;
3503;SDS011;1766;53.490;10.174;2023-01-26T05:23:13;65.80;;;22.90;;
3503;SDS011;1766;53.490;10.174;2023-01-26T05:25:14;66.30;;;23.07;;
3503;SDS011;1766;53.490;10.174;2023-01-26T05:27:16;79.27;;;23.63;;
3503;SDS011;1766;53.490;10.174;2023-01-26T05:29:21;70.57;;;24.43;;
3503;SDS011;1766;53.490;10.174;2023-01-26T05:31:23;71.37;;;25.03;;
3503;SDS011;1766;53.490;10.174;2023-01-26T05:33:25;80.93;;;24.67;;
3503;SDS011;1766;53.490;10.174;2023-01-26T05:35:27;77.57;;;24.57;;
3503;SDS011;1766;53.490;10.174;2023-01-26T05:37:28;80.67;;;24.17;;
3503;SDS011;1766;53.490;10.174;2023-01-26T05:39:31;73.93;;;23.90;;
3503;SDS011;1766;53.490;10.174;2023-01-26T05:41:33;70.37;;;22.93;;
3503;SDS011;1766;53.490;10.174;2023-01-26T05:43:35;66.03;;;22.23;;
3503;SDS011;1766;53.490;10.174;2023-01-26T05:45:37;62.83;;;22.73;;
3503;SDS011;1766;53.490;10.174;2023-01-26T05:47:39;73.63;;;24.07;;
3503;SDS011;1766;53.490;10.174;2023-01-26T05:49:43;85.33;;;29.00;;
3503;SDS011;1766;53.490;10.174;2023-01-26T05:51:45;80.23;;;26.07;;
3503;SDS011;1766;53.490;10.174;2023-01-26T05:53:47;67.50;;;24.00;;
3503;SDS011;1766;53.490;10.174;2023-01-26T05:55:50;73.07;;;23.00;;
3503;SDS011;1766;53.490;10.174;2023-01-26T05:57:52;65.67;;;24.00;;
3503;SDS011;1766;53.490;10.174;2023-01-26T05:59:53;64.83;;;23.47;;
3503;SDS011;1766;53.490;10.174;2023-01-26T06:01:55;61.90;;;23.47;;
3503;SDS011;1766;53.490;10.174;2023-01-26T06:03:58;81.23;;;27.17;;
3503;SDS011;1766;53.490;10.174;2023-01-26T06:05:59;67.23;;;24.63;;
3503;SDS011;1766;53.490;10.174;2023-01-26T06:08:01;66.50;;;22.20;;
3503;SDS011;1766;53.490;10.174;2023-01-26T06:10:03;61.77;;;21.97;;
3503;SDS011;1766;53.490;10.174;2023-01-26T06:12:08;66.17;;;21.93;;
3503;SDS011;1766;53.490;10.174;2023-01-26T06:14:15;61.77;;;22.23;;
3503;SDS011;1766;53.490;10.174;2023-01-26T06:16:17;61.47;;;23.13;;
3503;SDS011;1766;53.490;10.174;2023-01-26T06:18:19;68.37;;;23.07;;
3503;SDS011;1766;53.490;10.174;2023-01-26T06:20:20;60.10;;;21.90;;
3503;SDS011;1766;53.490;10.174;2023-01-26T06:22:22;65.53;;;25.10;;
3503;SDS011;1766;53.490;10.174;2023-01-26T06:24:24;60.33;;;21.20;;
3503;SDS011;1766;53.490;10.174;2023-01-26T06:26:26;54.30;;;19.47;;
3503;SDS011;1766;53.490;10.174;2023-01-26T06:28:30;57.60;;;21.43;;
3503;SDS011;1766;53.490;10.174;2023-01-26T06:30:31;56.97;;;19.87;;
3503;SDS011;1766;53.490;10.174;2023-01-26T06:32:34;59.30;;;20.60;;
3503;SDS011;1766;53.490;10.174;2023-01-26T06:34:36;54.80;;;20.60;;
3503;SDS011;1766;53.490;10.174;2023-01-26T06:36:38;57.80;;;20.83;;
3503;SDS011;1766;53.490;10.174;2023-01-26T06:38:43;64.17;;;22.00;;
3503;SDS011;1766;53.490;10.174;2023-01-26T06:40:46;55.10;;;21.07;;
3503;SDS011;1766;53.490;10.174;2023-01-26T06:42:48;54.57;;;20.17;;
3503;SDS011;1766;53.490;10.174;2023-01-26T06:44:51;58.53;;;20.77;;
3503;SDS011;1766;53.490;10.174;2023-01-26T06:46:53;55.43;;;20.73;;
3503;SDS011;1766;53.490;10.174;2023-01-26T06:48:55;53.50;;;20.13;;
3503;SDS011;1766;53.490;10.174;2023-01-26T06:50:58;50.40;;;19.33;;
3503;SDS011;1766;53.490;10.174;2023-01-26T06:53:38;52.73;;;19.67;;
3503;SDS011;1766;53.490;10.174;2023-01-26T06:55:44;62.80;;;25.33;;
3503;SDS011;1766;53.490;10.174;2023-01-26T06:57:46;80.00;;;28.27;;
3503;SDS011;1766;53.490;10.174;2023-01-26T06:59:48;54.23;;;19.23;;
3503;SDS011;1766;53.490;10.174;2023-01-26T07:01:51;54.07;;;18.97;;
3503;SDS011;1766;53.490;10.174;2023-01-26T07:03:53;47.80;;;19.30;;
3503;SDS011;1766;53.490;10.174;2023-01-26T07:05:55;57.33;;;19.23;;
3503;SDS011;1766;53.490;10.174;2023-01-26T07:07:57;51.27;;;19.33;;
3503;SDS011;1766;53.490;10.174;2023-01-26T07:10:01;51.77;;;19.23;;
3503;SDS011;1766;53.490;10.174;2023-01-26T07:12:05;58.73;;;20.83;;
3503;SDS011;1766;53.490;10.174;2023-01-26T07:14:08;51.57;;;19.13;;
3503;SDS011;1766;53.490;10.174;2023-01-26T07:16:10;55.30;;;18.20;;
3503;SDS011;1766;53.490;10.174;2023-01-26T07:18:15;54.40;;;19.60;;
3503;SDS011;1766;53.490;10.174;2023-01-26T07:20:17;49.10;;;18.47;;
3503;SDS011;1766;53.490;10.174;2023-01-26T07:22:19;54.47;;;19.43;;
3503;SDS011;1766;53.490;10.174;2023-01-26T07:24:20;54.13;;;19.20;;
3503;SDS011;1766;53.490;10.174;2023-01-26T07:26:22;49.93;;;18.27;;
3503;SDS011;1766;53.490;10.174;2023-01-26T07:28:24;50.90;;;18.57;;
3503;SDS011;1766;53.490;10.174;2023-01-26T07:30:26;47.97;;;17.70;;
3503;SDS011;1766;53.490;10.174;2023-01-26T07:32:28;53.30;;;18.23;;
3503;SDS011;1766;53.490;10.174;2023-01-26T07:34:31;50.57;;;17.37;;
3503;SDS011;1766;53.490;10.174;2023-01-26T07:36:33;50.27;;;16.63;;
3503;SDS011;1766;53.490;10.174;2023-01-26T07:38:35;46.67;;;19.53;;
3503;SDS011;1766;53.490;10.174;2023-01-26T07:40:37;46.43;;;18.33;;
3503;SDS011;1766;53.490;10.174;2023-01-26T07:42:38;46.07;;;18.17;;
3503;SDS011;1766;53.490;10.174;2023-01-26T07:44:40;46.83;;;17.93;;
3503;SDS011;1766;53.490;10.174;2023-01-26T07:46:42;45.83;;;17.77;;
3503;SDS011;1766;53.490;10.174;2023-01-26T07:48:44;43.57;;;16.53;;
3503;SDS011;1766;53.490;10.174;2023-01-26T07:50:47;45.97;;;18.23;;
3503;SDS011;1766;53.490;10.174;2023-01-26T07:52:48;50.97;;;19.73;;
3503;SDS011;1766;53.490;10.174;2023-01-26T07:54:51;44.63;;;17.03;;
3503;SDS011;1766;53.490;10.174;2023-01-26T07:56:53;45.80;;;17.53;;
3503;SDS011;1766;53.490;10.174;2023-01-26T07:58:55;50.50;;;18.50;;
3503;SDS011;1766;53.490;10.174;2023-01-26T08:01:02;67.50;;;24.80;;
3503;SDS011;1766;53.490;10.174;2023-01-26T08:03:08;39.70;;;16.00;;
3503;SDS011;1766;53.490;10.174;2023-01-26T08:05:09;46.47;;;17.17;;
3503;SDS011;1766;53.490;10.174;2023-01-26T08:07:12;43.33;;;16.60;;
3503;SDS011;1766;53.490;10.174;2023-01-26T08:09:14;40.73;;;15.47;;
3503;SDS011;1766;53.490;10.174;2023-01-26T08:11:16;41.63;;;16.63;;
3503;SDS011;1766;53.490;10.174;2023-01-26T08:13:21;42.87;;;16.47;;
3503;SDS011;1766;53.490;10.174;2023-01-26T08:15:23;41.77;;;16.20;;
3503;SDS011;1766;53.490;10.174;2023-01-26T08:17:27;36.77;;;14.77;;
3503;SDS011;1766;53.490;10.174;2023-01-26T08:19:29;48.57;;;16.40;;
3503;SDS011;1766;53.490;10.174;2023-01-26T08:21:30;41.17;;;16.77;;
3503;SDS011;1766;53.490;10.174;2023-01-26T08:23:33;37.97;;;14.57;;
3503;SDS011;1766;53.490;10.174;2023-01-26T08:25:35;37.87;;;16.27;;
3503;SDS011;1766;53.490;10.174;2023-01-26T08:27:37;36.00;;;15.73;;
3503;SDS011;1766;53.490;10.174;2023-01-26T08:29:39;41.23;;;16.43;;
3503;SDS011;1766;53.490;10.174;2023-01-26T08:31:40;42.57;;;17.40;;
3503;SDS011;1766;53.490;10.174;2023-01-26T08:33:43;40.33;;;15.43;;
3503;SDS011;1766;53.490;10.174;2023-01-26T08:35:45;36.73;;;15.57;;
3503;SDS011;1766;53.490;10.174;2023-01-26T08:37:47;45.77;;;16.20;;
3503;SDS011;1766;53.490;10.174;2023-01-26T08:39:50;40.37;;;15.90;;
3503;SDS011;1766;53.490;10.174;2023-01-26T08:41:52;40.07;;;15.13;;
3503;SDS011;1766;53.490;10.174;2023-01-26T08:43:54;39.00;;;14.57;;
3503;SDS011;1766;53.490;10.174;2023-01-26T08:45:58;45.10;;;15.57;;
3503;SDS011;1766;53.490;10.174;2023-01-26T08:48:00;39.00;;;15.60;;
3503;SDS011;1766;53.490;10.174;2023-01-26T08:50:02;41.63;;;15.73;;
3503;SDS011;1766;53.490;10.174;2023-01-26T08:52:04;39.80;;;15.50;;
3503;SDS011;1766;53.490;10.174;2023-01-26T08:54:19;41.43;;;16.23;;
3503;SDS011;1766;53.490;10.174;2023-01-26T08:56:22;37.63;;;14.87;;
3503;SDS011;1766;53.490;10.174;2023-01-26T08:58:24;37.37;;;15.17;;
3503;SDS011;1766;53.490;10.174;2023-01-26T09:00:26;41.10;;;16.90;;
3503;SDS011;1766;53.490;10.174;2023-01-26T09:02:28;38.47;;;15.67;;
3503;SDS011;1766;53.490;10.174;2023-01-26T09:04:30;34.47;;;15.27;;
3503;SDS011;1766;53.490;10.174;2023-01-26T09:06:33;36.93;;;14.67;;
3503;SDS011;1766;53.490;10.174;2023-01-26T09:08:34;39.33;;;14.90;;
3503;SDS011;1766;53.490;10.174;2023-01-26T09:10:37;40.67;;;15.53;;
3503;SDS011;1766;53.490;10.174;2023-01-26T09:12:40;41.40;;;16.10;;
3503;SDS011;1766;53.490;10.174;2023-01-26T09:14:42;37.50;;;16.37;;
3503;SDS011;1766;53.490;10.174;2023-01-26T09:16:44;39.00;;;14.83;;
3503;SDS011;1766;53.490;10.174;2023-01-26T09:18:47;37.53;;;15.10;;
3503;SDS011;1766;53.490;10.174;2023-01-26T09:20:50;30.57;;;13.23;;
3503;SDS011;1766;53.490;10.174;2023-01-26T09:22:52;37.03;;;14.07;;
3503;SDS011;1766;53.490;10.174;2023-01-26T09:24:54;31.43;;;13.27;;
3503;SDS011;1766;53.490;10.174;2023-01-26T09:26:56;35.90;;;13.73;;
3503;SDS011;1766;53.490;10.174;2023-01-26T09:29:00;38.80;;;14.80;;
3503;SDS011;1766;53.490;10.174;2023-01-26T09:31:02;34.83;;;14.03;;
3503;SDS011;1766;53.490;10.174;2023-01-26T09:33:04;35.77;;;14.43;;
3503;SDS011;1766;53.490;10.174;2023-01-26T09:35:07;30.33;;;12.80;;
3503;SDS011;1766;53.490;10.174;2023-01-26T09:37:10;28.83;;;12.27;;
3503;SDS011;1766;53.490;10.174;2023-01-26T09:39:15;34.50;;;13.90;;
3503;SDS011;1766;53.490;10.174;2023-01-26T09:41:19;29.17;;;12.70;;
3503;SDS011;1766;53.490;10.174;2023-01-26T09:43:39;24.17;;;11.97;;
3503;SDS011;1766;53.490;10.174;2023-01-26T09:45:48;26.60;;;10.90;;
3503;SDS011;1766;53.490;10.174;2023-01-26T09:48:04;26.17;;;12.10;;
3503;SDS011;1766;53.490;10.174;2023-01-26T09:50:20;28.30;;;11.37;;
3503;SDS011;1766;53.490;10.174;2023-01-26T09:52:27;26.30;;;10.57;;
3503;SDS011;1766;53.490;10.174;2023-01-26T09:54:34;22.40;;;10.57;;
3503;SDS011;1766;53.490;10.174;2023-01-26T09:56:39;23.83;;;9.87;;
3503;SDS011;1766;53.490;10.174;2023-01-26T09:58:42;22.40;;;10.10;;
3503;SDS011;1766;53.490;10.174;2023-01-26T10:00:49;25.53;;;10.67;;
3503;SDS011;1766;53.490;10.174;2023-01-26T10:02:59;21.07;;;9.87;;
3503;SDS011;1766;53.490;10.174;2023-01-26T10:05:13;24.47;;;10.30;;
3503;SDS011;1766;53.490;10.174;2023-01-26T10:07:20;26.00;;;11.30;;
3503;SDS011;1766;53.490;10.174;2023-01-26T10:09:33;28.47;;;13.50;;
3503;SDS011;1766;53.490;10.174;2023-01-26T10:11:37;28.03;;;13.70;;
3503;SDS011;1766;53.490;10.174;2023-01-26T10:13:45;27.83;;;11.80;;
3503;SDS011;1766;53.490;10.174;2023-01-26T10:15:55;26.90;;;11.80;;
3503;SDS011;1766;53.490;10.174;2023-01-26T10:18:01;29.43;;;11.23;;
3503;SDS011;1766;53.490;10.174;2023-01-26T10:20:11;28.27;;;12.13;;
3503;SDS011;1766;53.490;10.174;2023-01-26T10:22:29;28.13;;;11.53;;
3503;SDS011;1766;53.490;10.174;2023-01-26T10:24:38;29.50;;;12.43;;
3503;SDS011;1766;53.490;10.174;2023-01-26T10:26:40;24.20;;;11.13;;
3503;SDS011;1766;53.490;10.174;2023-01-26T10:28:43;24.33;;;11.57;;
3503;SDS011;1766;53.490;10.174;2023-01-26T10:30:47;26.20;;;11.03;;
3503;SDS011;1766;53.490;10.174;2023-01-26T10:32:51;22.53;;;10.17;;
3503;SDS011;1766;53.490;10.174;2023-01-26T10:34:53;24.47;;;10.90;;
3503;SDS011;1766;53.490;10.174;2023-01-26T10:37:13;25.37;;;11.47;;
3503;SDS011;1766;53.490;10.174;2023-01-26T10:39:25;19.10;;;8.87;;
3503;SDS011;1766;53.490;10.174;2023-01-26T10:41:27;20.27;;;10.17;;
3503;SDS011;1766;53.490;10.174;2023-01-26T10:43:29;20.47;;;9.33;;
3503;SDS011;1766;53.490;10.174;2023-01-26T10:45:43;21.07;;;9.33;;
3503;SDS011;1766;53.490;10.174;2023-01-26T10:47:49;22.47;;;9.70;;
3503;SDS011;1766;53.490;10.174;2023-01-26T10:50:15;18.90;;;9.33;;
3503;SDS011;1766;53.490;10.174;2023-01-26T10:52:23;21.53;;;9.17;;
3503;SDS011;1766;53.490;10.174;2023-01-26T10:54:25;16.13;;;8.17;;
3503;SDS011;1766;53.490;10.174;2023-01-26T10:56:28;21.47;;;10.20;;
3503;SDS011;1766;53.490;10.174;2023-01-26T11:00:53;22.13;;;8.53;;
3503;SDS011;1766;53.490;10.174;2023-01-26T11:02:58;21.17;;;9.90;;
3503;SDS011;1766;53.490;10.174;2023-01-26T11:07:27;22.80;;;9.60;;
3503;SDS011;1766;53.490;10.174;2023-01-26T11:09:33;24.97;;;10.80;;
3503;SDS011;1766;53.490;10.174;2023-01-26T11:11:35;26.27;;;9.80;;
3503;SDS011;1766;53.490;10.174;2023-01-26T11:13:37;22.10;;;9.50;;
3503;SDS011;1766;53.490;10.174;2023-01-26T11:15:40;26.93;;;9.70;;
3503;SDS011;1766;53.490;10.174;2023-01-26T11:17:47;22.07;;;9.13;;
3503;SDS011;1766;53.490;10.174;2023-01-26T11:20:01;22.83;;;11.03;;
3503;SDS011;1766;53.490;10.174;2023-01-26T11:22:16;22.47;;;9.13;;
3503;SDS011;1766;53.490;10.174;2023-01-26T11:24:22;27.70;;;10.33;;
3503;SDS011;1766;53.490;10.174;2023-01-26T11:26:38;27.57;;;10.30;;
3503;SDS011;1766;53.490;10.174;2023-01-26T11:28:57;22.17;;;10.13;;
3503;SDS011;1766;53.490;10.174;2023-01-26T11:31:15;24.37;;;10.93;;
3503;SDS011;1766;53.490;10.174;2023-01-26T11:33:31;25.70;;;10.87;;
3503;SDS011;1766;53.490;10.174;2023-01-26T11:35:43;26.80;;;11.20;;
3503;SDS011;1766;53.490;10.174;2023-01-26T11:37:53;31.07;;;11.90;;
3503;SDS011;1766;53.490;10.174;2023-01-26T11:40:07;28.37;;;11.03;;
3503;SDS011;1766;53.490;10.174;2023-01-26T11:42:24;29.30;;;11.47;;
3503;SDS011;1766;53.490;10.174;2023-01-26T11:44:42;25.03;;;11.67;;
3503;SDS011;1766;53.490;10.174;2023-01-26T11:46:57;38.93;;;15.10;;
3503;SDS011;1766;53.490;10.174;2023-01-26T11:49:14;32.43;;;13.87;;
3503;SDS011;1766;53.490;10.174;2023-01-26T11:51:39;32.87;;;12.30;;
3503;SDS011;1766;53.490;10.174;2023-01-26T11:53:56;35.90;;;14.27;;
3503;SDS011;1766;53.490;10.174;2023-01-26T11:56:12;32.43;;;13.87;;
3503;SDS011;1766;53.490;10.174;2023-01-26T11:58:27;31.30;;;12.97;;
3503;SDS011;1766;53.490;10.174;2023-01-26T12:00:36;33.63;;;13.33;;
3503;SDS011;1766;53.490;10.174;2023-01-26T12:02:41;36.17;;;14.77;;
3503;SDS011;1766;53.490;10.174;2023-01-26T12:04:54;38.00;;;13.90;;
3503;SDS011;1766;53.490;10.174;2023-01-26T12:07:00;38.67;;;15.73;;
3503;SDS011;1766;53.490;10.174;2023-01-26T12:09:11;35.93;;;14.67;;
3503;SDS011;1766;53.490;10.174;2023-01-26T12:11:22;37.43;;;14.20;;
3503;SDS011;1766;53.490;10.174;2023-01-26T12:13:29;45.67;;;16.00;;
3503;SDS011;1766;53.490;10.174;2023-01-26T12:15:38;41.63;;;15.00;;
3503;SDS011;1766;53.490;10.174;2023-01-26T12:17:49;43.27;;;16.17;;
3503;SDS011;1766;53.490;10.174;2023-01-26T12:20:03;51.70;;;18.17;;
3503;SDS011;1766;53.490;10.174;2023-01-26T12:22:21;49.53;;;17.40;;
3503;SDS011;1766;53.490;10.174;2023-01-26T12:24:32;47.60;;;17.73;;
3503;SDS011;1766;53.490;10.174;2023-01-26T12:26:40;47.40;;;17.40;;
3503;SDS011;1766;53.490;10.174;2023-01-26T12:28:48;52.90;;;18.33;;